• Join FlightAware (Why Join?)
  • Login
  • US Flag 
10:17AM EST


 

Airport Tracker/Info


-or-


 

Live Flight TrackerFlight Track Log ✈ N12734 ✈ 04-Aug-2013 ✈ KWVL - KLWM

Flight Track Log - Related Links

Times and Time Zones

All times are in EDT time to prevent confusion due to time zone crossing. See the N12734 flight status page for this flight to view local times or setup timezone preferences in your user account.

Time Position Orientation Groundspeed Altitude Reporting Facility
EDT Latitude Longitude Course Direction KTS MPH feet Rate Location/Type
05:17PM 43.4500 -70.5500 216° Southwest 107 123 4,600  Level KA90
05:17PM 43.4333 -70.5667 216° Southwest 108 124 4,600  Level KA90
05:18PM 43.4000 -70.5833 200° South 106 122 4,600  Level KA90
05:19PM 43.3833 -70.6167 235° Southwest 101 116 4,600  Level KA90
05:20PM 43.3500 -70.6333 200° South 100 115 4,600  Level KA90
05:21PM 43.3333 -70.6500 216° Southwest 98 113 4,600  Level KA90
05:22PM 43.3167 -70.6667 216° Southwest 98 113 4,600  Level KA90
05:23PM 43.2833 -70.6833 200° South 99 114 4,600  Level KA90
05:24PM 43.2667 -70.7000 216° Southwest 99 114 4,600  Level KA90
05:25PM 43.2333 -70.7167 200° South 98 113 4,600  Level KA90
05:26PM 43.2167 -70.7333 216° Southwest 98 113 4,600  Level KA90
05:27PM 43.1833 -70.7500 200° South 98 113 4,600  Level KA90
05:28PM 43.1667 -70.7833 236° Southwest 96 110 4,600  Level KA90
05:29PM 43.1500 -70.8000 216° Southwest 99 114 4,600  Level KA90
05:30PM 43.1167 -70.8167 200° South 100 115 4,600  Level KA90
05:31PM 43.1000 -70.8333 216° Southwest 102 117 4,600  Level KA90
05:32PM 43.0667 -70.8500 200° South 103 119 4,600  Level KA90
05:33PM 43.0500 -70.8667 216° Southwest 102 117 4,600  Level KA90
05:34PM 43.0167 -70.8833 200° South 101 116 4,600  Level KA90
05:35PM 43.0000 -70.9000 216° Southwest 99 114 4,600 -180 Level KA90
05:36PM 42.9667 -70.9333 216° Southwest 98 113 4,300 -300 Descending KA90
05:38PM 42.9427 -70.9477 204° Southwest  Level FlightAware Approximate
05:45PM 42.7886 -71.0427 194° South  Level FlightAware Approximate
05:46PM 42.7641 -71.0526 216° Southwest  Level FlightAware Approximate
05:47PM 42.7434 -71.0733 216° Southwest  Level FlightAware Approximate
05:48PM 42.7258 -71.0983 236° Southwest  Level FlightAware Approximate
05:49PM 42.7167 -71.1167 236° Southwest  Level FlightAware Approximate
05:50PM 42.7172 -71.1234 236° Southwest  Level Estimated
05:51PM 42.7167 -71.1167 236° Southwest  Level FlightAware Approximate
05:52PM 42.7172 -71.1234 236° Southwest  Level Estimated
05:53PM 42.7167 -71.1167 236° Southwest  Level FlightAware Approximate
05:54PM 42.7172 -71.1234 236° Southwest  Level Estimated
05:55PM 42.7167 -71.1167 236° Southwest  Level FlightAware Approximate
05:56PM 42.7172 -71.1234 236° Southwest  Level Estimated
05:57PM 42.7167 -71.1167 236° Southwest  Level FlightAware Approximate
05:58PM 42.7172 -71.1234 236° Southwest  Level Estimated
05:59PM 42.7167 -71.1167 236° Southwest  Level FlightAware Approximate
06:00PM 42.7172 -71.1234 236° Southwest  Level Estimated
06:01PM 42.7167 -71.1167 236° Southwest  Level FlightAware Approximate
06:02PM 42.7172 -71.1234 236° Southwest  Level Estimated
06:03PM 42.7167 -71.1167 236° Southwest  Level FlightAware Approximate
06:04PM 42.7172 -71.1234 236° Southwest  Level Estimated